Time;durP1;ratioP1;P1;durP2;ratioP2;P2;SDS_P1;SDS_P2;PMS_P1;PMS_P2;Temp;Humidity;BMP_temperature;BMP_pressure;BME280_temperature;BME280_humidity;BME280_pressure;Samples;Min_cycle;Max_cycle;Signal;HPM_P1;HPM_P2
2022/09/20 00:00:40;;;;;;;22.42;8.30;;;;;;;10.55;100.00;102100.44;5084517;28;20035;-67
2022/09/20 00:03:06;;;;;;;21.95;7.95;;;;;;;10.55;100.00;102104.84;5087356;28;20029;-67
2022/09/20 00:05:36;;;;;;;22.20;7.75;;;;;;;10.55;100.00;102107.50;5084944;28;20040;-67
2022/09/20 00:08:04;;;;;;;22.48;8.20;;;;;;;10.56;100.00;102102.25;5086871;28;20030;-67
2022/09/20 00:10:33;;;;;;;21.85;7.68;;;;;;;10.55;100.00;102102.22;5084803;28;20035;-65
2022/09/20 00:12:58;;;;;;;21.08;7.47;;;;;;;10.58;100.00;102104.94;5086170;28;20028;-65
2022/09/20 00:15:24;;;;;;;21.00;7.88;;;;;;;10.54;100.00;102100.41;5085700;28;20027;-66
2022/09/20 00:17:49;;;;;;;21.23;8.25;;;;;;;10.52;100.00;102099.50;5084634;28;20038;-65
2022/09/20 00:20:14;;;;;;;21.35;7.80;;;;;;;10.50;100.00;102099.47;5086809;28;20024;-66
2022/09/20 00:22:40;;;;;;;20.85;7.82;;;;;;;10.49;100.00;102094.13;5083786;28;20433;-63
2022/09/20 00:25:08;;;;;;;21.50;7.82;;;;;;;10.43;100.00;102098.41;5087438;28;20107;-64
2022/09/20 00:27:34;;;;;;;21.77;8.35;;;;;;;10.38;100.00;102086.84;5084177;28;20032;-63
2022/09/20 00:29:59;;;;;;;22.92;8.20;;;;;;;10.37;100.00;102094.69;5086303;28;20035;-64
2022/09/20 00:32:24;;;;;;;22.63;8.18;;;;;;;10.32;100.00;102096.31;5085258;28;20020;-65
2022/09/20 00:35:09;;;;;;;22.58;8.30;;;;;;;10.25;100.00;102098.81;5084393;28;20472;-65
2022/09/20 00:37:37;;;;;;;22.38;8.48;;;;;;;10.17;100.00;102103.00;5083497;28;20478;-63
2022/09/20 00:40:05;;;;;;;22.33;8.35;;;;;;;10.10;100.00;102107.22;5086515;28;20469;-65
2022/09/20 00:42:31;;;;;;;22.20;8.35;;;;;;;10.09;100.00;102102.81;5084284;28;20107;-65
2022/09/20 00:45:10;;;;;;;23.30;8.20;;;;;;;10.08;100.00;102108.03;5085383;28;20052;-63
2022/09/20 00:47:42;;;;;;;21.50;8.18;;;;;;;10.10;100.00;102107.22;5083442;28;20042;-63
2022/09/20 00:50:23;;;;;;;21.13;8.18;;;;;;;10.06;100.00;102104.44;5083532;28;20438;-63
2022/09/20 00:52:53;;;;;;;21.50;8.35;;;;;;;10.07;100.00;102103.59;5084491;28;20029;-63
2022/09/20 00:55:19;;;;;;;23.27;8.32;;;;;;;10.03;100.00;102104.38;5084417;28;20024;-63
2022/09/20 00:57:45;;;;;;;24.13;8.57;;;;;;;9.95;100.00;102106.81;5083309;28;20368;-62
2022/09/20 01:00:13;;;;;;;23.73;8.13;;;;;;;9.89;100.00;102101.38;5086670;28;20084;-63
2022/09/20 01:02:47;;;;;;;22.70;7.95;;;;;;;9.82;100.00;102104.69;5082913;28;20052;-62
2022/09/20 01:05:16;;;;;;;21.40;8.07;;;;;;;9.73;100.00;102106.22;5083196;28;20364;-63
2022/09/20 01:07:43;;;;;;;21.77;8.00;;;;;;;9.65;100.00;102104.22;5086893;28;20024;-63
2022/09/20 01:10:08;;;;;;;23.40;8.65;;;;;;;9.62;100.00;102104.13;5083082;28;20033;-63
2022/09/20 01:12:35;;;;;;;23.17;8.13;;;;;;;9.65;100.00;102102.47;5085689;28;20035;-63
2022/09/20 01:15:03;;;;;;;22.67;8.50;;;;;;;9.62;100.00;102099.75;5083748;28;20100;-62
2022/09/20 01:17:33;;;;;;;23.00;8.80;;;;;;;9.65;100.00;102099.81;5084922;28;20479;-63
2022/09/20 01:20:16;;;;;;;23.10;8.35;;;;;;;9.67;100.00;102099.84;5083925;28;20020;-63
2022/09/20 01:23:06;;;;;;;22.88;8.25;;;;;;;9.72;100.00;102099.16;5082817;28;20064;-63
2022/09/20 01:25:44;;;;;;;23.45;8.40;;;;;;;9.76;100.00;102090.47;5085248;28;20707;-64
2022/09/20 01:28:09;;;;;;;21.75;8.40;;;;;;;9.79;100.00;102088.78;5082497;28;20497;-63
2022/09/20 01:30:42;;;;;;;21.73;7.82;;;;;;;9.83;100.00;102095.91;5085868;28;20060;-62
2022/09/20 01:33:35;;;;;;;21.52;8.07;;;;;;;9.86;100.00;102099.53;5082576;28;20036;-63
2022/09/20 01:36:04;;;;;;;21.17;8.10;;;;;;;9.86;100.00;102103.91;5084974;28;20044;-64
2022/09/20 01:38:39;;;;;;;21.58;8.00;;;;;;;9.89;100.00;102101.38;5083167;28;20031;-64
2022/09/20 01:41:14;;;;;;;21.20;7.85;;;;;;;9.98;100.00;102106.91;5085399;28;20024;-63
2022/09/20 01:43:57;;;;;;;21.33;7.78;;;;;;;9.99;100.00;102098.13;5082376;28;20024;-65
2022/09/20 01:46:36;;;;;;;21.65;7.78;;;;;;;10.00;100.00;102091.97;5083694;28;20024;-65
2022/09/20 01:49:13;;;;;;;21.17;7.68;;;;;;;9.99;100.00;102102.50;5082598;28;20024;-65
2022/09/20 01:52:27;;;;;;;21.92;7.30;;;;;;;9.97;100.00;102104.22;5082193;28;20552;-64
2022/09/20 01:55:25;;;;;;;19.90;7.20;;;;;;;9.98;100.00;102104.25;5083299;28;20028;-65
2022/09/20 01:58:22;;;;;;;20.70;7.68;;;;;;;9.98;100.00;102101.59;5083403;28;20032;-65
2022/09/20 02:00:59;;;;;;;19.52;7.35;;;;;;;10.00;100.00;102099.88;5082528;28;20463;-64
2022/09/20 02:03:57;;;;;;;21.30;7.55;;;;;;;10.03;100.00;102099.09;5083802;28;20020;-65
2022/09/20 02:07:00;;;;;;;22.70;7.85;;;;;;;10.01;100.00;102106.97;5082943;28;20149;-65
2022/09/20 02:10:03;;;;;;;20.95;7.10;;;;;;;10.01;100.00;102096.41;5083480;28;20024;-65
2022/09/20 02:12:47;;;;;;;22.25;7.70;;;;;;;10.02;100.00;102098.19;5084094;28;20032;-63
2022/09/20 02:15:43;;;;;;;19.52;6.95;;;;;;;10.03;100.00;102099.09;5081730;28;20063;-63
2022/09/20 02:18:33;;;;;;;21.60;7.20;;;;;;;10.05;100.00;102100.94;5081651;28;20025;-63
2022/09/20 02:21:04;;;;;;;20.15;7.00;;;;;;;10.02;100.00;102098.19;5083864;28;20025;-64
2022/09/20 02:24:03;;;;;;;21.92;7.15;;;;;;;10.05;100.00;102103.56;5082769;28;20108;-65
2022/09/20 02:26:45;;;;;;;21.45;7.47;;;;;;;10.08;100.00;102108.94;5020617;28;20045;-64
2022/09/20 02:29:29;;;;;;;22.17;7.30;;;;;;;10.12;100.00;102099.34;5015950;28;20389;-63
2022/09/20 02:32:35;;;;;;;20.48;7.20;;;;;;;10.16;100.00;102101.19;5019418;28;20044;-65
2022/09/20 02:35:39;;;;;;;22.40;7.40;;;;;;;10.16;100.00;102093.25;5021336;28;20112;-63
2022/09/20 02:38:25;;;;;;;22.50;7.38;;;;;;;10.11;100.00;102095.78;5021927;28;20037;-65
2022/09/20 02:41:08;;;;;;;19.88;7.07;;;;;;;10.09;100.00;102094.88;5017790;28;20061;-65
2022/09/20 02:43:59;;;;;;;21.27;7.20;;;;;;;10.07;100.00;102096.56;5019510;28;20143;-64
2022/09/20 02:46:40;;;;;;;21.50;7.03;;;;;;;10.05;100.00;102097.41;5019060;28;20084;-65
2022/09/20 02:49:27;;;;;;;22.15;7.63;;;;;;;10.05;100.00;102103.56;5019466;28;20030;-63
2022/09/20 02:52:12;;;;;;;21.60;6.90;;;;;;;10.08;100.00;102105.41;5018153;28;20397;-65
2022/09/20 02:54:49;;;;;;;22.83;7.38;;;;;;;10.11;100.00;102109.00;5019286;28;20041;-66
2022/09/20 02:57:27;;;;;;;20.65;6.78;;;;;;;10.12;100.00;102102.00;5015938;28;20045;-64
2022/09/20 03:00:00;;;;;;;22.40;6.88;;;;;;;10.09;100.00;102097.50;5021147;28;20521;-65
2022/09/20 03:03:04;;;;;;;21.27;7.53;;;;;;;10.08;100.00;102098.34;5029479;28;20040;-65
2022/09/20 03:05:46;;;;;;;21.63;7.63;;;;;;;10.06;100.00;102097.44;5058519;28;20048;-64
2022/09/20 03:08:25;;;;;;;21.55;7.85;;;;;;;10.06;100.00;102084.22;5061985;28;20124;-64
2022/09/20 03:11:02;;;;;;;21.98;7.43;;;;;;;10.08;100.00;102095.72;5061915;28;20133;-65
2022/09/20 03:13:30;;;;;;;21.30;7.35;;;;;;;10.12;100.00;102089.66;5059907;28;20052;-66
2022/09/20 03:16:11;;;;;;;21.67;7.78;;;;;;;10.12;100.00;102089.66;5060355;28;20071;-65
2022/09/20 03:19:01;;;;;;;20.55;7.85;;;;;;;10.11;100.00;102098.44;5061443;28;20434;-65
2022/09/20 03:21:49;;;;;;;22.98;8.13;;;;;;;10.14;100.00;102099.38;5064264;28;20556;-66
2022/09/20 03:24:49;;;;;;;21.83;7.80;;;;;;;10.12;100.00;102094.06;5066020;28;20025;-66
2022/09/20 03:27:19;;;;;;;21.42;7.68;;;;;;;10.15;100.00;102098.50;5065843;28;20036;-66
2022/09/20 03:29:58;;;;;;;25.00;8.30;;;;;;;10.13;100.00;102103.75;5062637;28;20487;-65
2022/09/20 03:33:11;;;;;;;20.67;7.70;;;;;;;10.15;100.00;102098.50;5064747;28;20028;-65
2022/09/20 03:35:56;;;;;;;20.95;7.88;;;;;;;10.15;100.00;102093.22;5022737;28;20049;-65
2022/09/20 03:38:24;;;;;;;22.88;8.10;;;;;;;10.13;100.00;102095.81;5023476;28;20111;-66
2022/09/20 03:41:07;;;;;;;21.30;8.15;;;;;;;10.15;100.00;102095.88;5033560;28;20048;-65
2022/09/20 03:43:56;;;;;;;21.98;8.13;;;;;;;10.17;100.00;102091.53;5043062;28;20033;-64
2022/09/20 03:46:27;;;;;;;22.38;8.63;;;;;;;10.19;100.00;102100.38;5045559;28;20041;-66
2022/09/20 03:49:29;;;;;;;21.67;8.48;;;;;;;10.22;100.00;102105.75;5044541;28;20025;-63
2022/09/20 03:52:18;;;;;;;22.15;8.60;;;;;;;10.27;100.00;102098.84;5045556;28;20042;-63
2022/09/20 03:55:09;;;;;;;22.73;8.70;;;;;;;10.29;100.00;102097.13;4986504;28;20143;-63
2022/09/20 03:57:43;;;;;;;21.42;8.35;;;;;;;10.29;100.00;102099.75;4987548;28;20035;-62
2022/09/20 04:00:27;;;;;;;22.45;8.15;;;;;;;10.30;100.00;102091.00;4986163;28;20046;-63
2022/09/20 04:03:19;;;;;;;23.05;8.57;;;;;;;10.32;100.00;102091.91;4989140;28;20048;-63
2022/09/20 04:06:30;;;;;;;22.98;8.77;;;;;;;10.32;100.00;102101.59;4989985;28;20125;-62
2022/09/20 04:09:14;;;;;;;23.30;8.40;;;;;;;10.28;100.00;102096.25;4988809;28;20062;-62
2022/09/20 04:12:09;;;;;;;23.48;8.80;;;;;;;10.27;100.00;102089.16;5000535;28;20527;-63
2022/09/20 04:14:46;;;;;;;22.10;8.18;;;;;;;10.25;100.00;102080.31;5024911;28;20516;-63
2022/09/20 04:17:29;;;;;;;21.00;8.52;;;;;;;10.25;100.00;102082.03;5022111;28;20060;-63
2022/09/20 04:20:12;;;;;;;21.95;8.63;;;;;;;10.24;100.00;102088.19;5023364;28;20112;-62
2022/09/20 04:22:41;;;;;;;22.95;9.00;;;;;;;10.24;100.00;102088.19;5022092;28;20036;-63
2022/09/20 04:25:20;;;;;;;21.80;8.48;;;;;;;10.25;100.00;102084.69;5024634;28;20496;-63
2022/09/20 04:27:53;;;;;;;23.73;8.70;;;;;;;10.26;100.00;102097.94;5021823;28;20139;-63
2022/09/20 04:30:20;;;;;;;21.73;8.63;;;;;;;10.25;100.00;102082.94;5024042;28;20650;-63
2022/09/20 04:33:04;;;;;;;22.67;8.90;;;;;;;10.25;100.00;102101.44;5079206;28;20115;-63
2022/09/20 04:38:34;;;;;;;22.25;8.60;;;;;;;10.25;100.00;102084.69;5086294;28;20097;-62
2022/09/20 04:41:33;;;;;;;22.25;8.70;;;;;;;10.24;100.00;102077.63;5084825;28;20028;-62
2022/09/20 04:44:13;;;;;;;21.92;9.10;;;;;;;10.21;100.00;102089.00;5085438;28;20036;-64
2022/09/20 04:46:57;;;;;;;22.35;9.38;;;;;;;10.21;100.00;102090.75;5081942;28;20032;-62
2022/09/20 04:49:32;;;;;;;22.70;9.00;;;;;;;10.24;100.00;102094.38;5084717;28;20025;-63
2022/09/20 04:52:38;;;;;;;21.95;8.93;;;;;;;10.21;100.00;102104.88;5085196;28;20117;-63
2022/09/20 04:55:34;;;;;;;23.08;9.38;;;;;;;10.19;100.00;102100.38;5085749;28;20024;-63
2022/09/20 04:58:18;;;;;;;21.75;9.70;;;;;;;10.18;100.00;102106.50;5084882;28;20028;-63
2022/09/20 05:01:04;;;;;;;22.70;10.18;;;;;;;10.11;100.00;102101.06;5083162;28;20039;-63
2022/09/20 05:04:06;;;;;;;24.70;10.23;;;;;;;10.11;100.00;102108.13;5084982;28;20038;-62
2022/09/20 05:07:03;;;;;;;23.30;10.10;;;;;;;10.09;100.00;102110.72;5085231;28;20044;-63
2022/09/20 05:10:17;;;;;;;22.98;10.40;;;;;;;10.07;100.00;102107.13;5085105;28;20036;-64
2022/09/20 05:12:45;;;;;;;22.10;9.68;;;;;;;10.07;100.00;102104.47;5020250;28;20604;-62
2022/09/20 05:15:27;;;;;;;22.73;9.43;;;;;;;10.04;100.00;102106.16;5024872;28;20065;-62
2022/09/20 05:18:23;;;;;;;23.63;9.82;;;;;;;10.01;100.00;102111.38;5023056;28;20503;-63
2022/09/20 05:20:56;;;;;;;22.85;9.65;;;;;;;9.98;100.00;102109.53;5023179;28;20428;-63
2022/09/20 05:23:52;;;;;;;21.67;9.57;;;;;;;9.98;100.00;102116.56;5016286;28;20045;-69
2022/09/20 05:26:37;;;;;;;23.15;10.10;;;;;;;9.91;100.00;102116.38;5016623;28;20106;-68
2022/09/20 05:29:17;;;;;;;21.55;9.82;;;;;;;9.84;100.00;102113.53;5015140;28;20091;-68
2022/09/20 05:31:51;;;;;;;24.35;10.05;;;;;;;9.75;100.00;102122.09;5023631;28;20030;-66
2022/09/20 05:34:22;;;;;;;23.90;10.07;;;;;;;9.72;100.00;102125.56;5021764;28;20148;-66
2022/09/20 05:36:57;;;;;;;23.52;10.30;;;;;;;9.74;100.00;102123.88;5025171;28;20045;-66
2022/09/20 05:39:37;;;;;;;23.17;10.63;;;;;;;9.81;100.00;102135.47;5024420;28;20033;-67
2022/09/20 05:42:28;;;;;;;23.60;10.10;;;;;;;9.90;100.00;102140.13;5020579;28;20040;-68
2022/09/20 05:45:16;;;;;;;21.95;9.98;;;;;;;9.98;100.00;102143.00;5024878;28;20033;-68
2022/09/20 05:47:58;;;;;;;22.15;9.80;;;;;;;10.03;100.00;102144.91;5023935;28;20025;-67
2022/09/20 05:50:52;;;;;;;23.35;10.10;;;;;;;10.09;100.00;102145.06;5072909;28;20051;-67
2022/09/20 05:53:32;;;;;;;23.02;9.75;;;;;;;10.12;100.00;102144.28;5085649;28;20379;-63
2022/09/20 05:56:06;;;;;;;22.92;9.55;;;;;;;10.14;100.00;102144.31;5085815;28;20088;-63
2022/09/20 05:58:37;;;;;;;25.02;9.88;;;;;;;10.17;100.00;102141.75;5086360;28;20086;-63
2022/09/20 06:01:22;;;;;;;22.65;9.43;;;;;;;10.24;100.00;102149.88;5089011;28;20383;-63
2022/09/20 06:03:54;;;;;;;22.27;8.93;;;;;;;10.25;100.00;102150.75;5088214;28;20410;-64
2022/09/20 06:06:42;;;;;;;21.92;9.20;;;;;;;10.29;100.00;102155.25;5089682;28;20031;-64
2022/09/20 06:09:08;;;;;;;21.90;8.95;;;;;;;10.30;100.00;102162.34;5082831;28;20031;-64
2022/09/20 06:12:05;;;;;;;21.55;8.80;;;;;;;10.35;100.00;102159.84;5082345;28;20151;-64
2022/09/20 06:14:49;;;;;;;22.50;8.68;;;;;;;10.37;100.00;102166.97;5081739;28;20493;-63
2022/09/20 06:17:27;;;;;;;20.58;8.32;;;;;;;10.38;100.00;102163.50;5083869;28;20040;-64
2022/09/20 06:20:20;;;;;;;21.73;8.60;;;;;;;10.42;100.00;102173.25;5084158;28;20027;-64
2022/09/20 06:22:55;;;;;;;20.70;8.38;;;;;;;10.45;100.00;102168.06;5086500;28;20028;-69
2022/09/20 06:25:38;;;;;;;20.98;8.30;;;;;;;10.46;100.00;102169.84;5085475;28;20039;-68
2022/09/20 06:28:12;;;;;;;23.30;8.27;;;;;;;10.50;100.00;102172.56;5085203;28;20120;-69
2022/09/20 06:30:56;;;;;;;21.85;8.52;;;;;;;10.53;100.00;102177.94;5083776;28;20971;-68
2022/09/20 06:33:24;;;;;;;20.67;7.72;;;;;;;10.55;100.00;102166.56;5083777;28;20402;-65
2022/09/20 06:35:55;;;;;;;22.52;7.90;;;;;;;10.57;100.00;102177.16;5086449;28;20470;-67
2022/09/20 06:41:29;;;;;;;20.55;7.97;;;;;;;10.66;100.00;102174.78;5075009;28;20067;-68
2022/09/20 06:43:59;;;;;;;20.13;7.82;;;;;;;10.67;100.00;102171.25;5083086;28;20028;-67
2022/09/20 06:46:33;;;;;;;20.98;7.65;;;;;;;10.71;100.00;102170.47;5085619;28;20081;-68
2022/09/20 06:48:58;;;;;;;21.33;8.32;;;;;;;10.78;100.00;102172.41;5083061;28;20423;-68
2022/09/20 06:51:26;;;;;;;20.75;7.90;;;;;;;10.84;100.00;102176.09;5087852;28;20099;-67
2022/09/20 06:53:53;;;;;;;21.30;8.02;;;;;;;10.86;100.00;102185.81;5084525;28;20031;-69
2022/09/20 06:56:21;;;;;;;21.00;7.60;;;;;;;10.87;100.00;102170.88;5087005;28;20509;-67
2022/09/20 06:58:47;;;;;;;22.17;7.65;;;;;;;10.93;100.00;102176.28;5086651;28;20028;-68
2022/09/20 07:01:12;;;;;;;20.20;7.70;;;;;;;11.02;100.00;102172.97;5082789;28;20074;-68
2022/09/20 07:03:41;;;;;;;21.98;7.35;;;;;;;11.08;100.00;102178.41;5088111;28;20147;-68
2022/09/20 07:06:08;;;;;;;21.08;7.75;;;;;;;11.15;100.00;102177.69;5084298;28;20035;-68
2022/09/20 07:08:33;;;;;;;21.08;7.75;;;;;;;11.21;100.00;102183.13;5081948;28;20036;-69
2022/09/20 07:11:09;;;;;;;20.60;7.85;;;;;;;11.30;100.00;102185.06;5088838;28;20021;-66
2022/09/20 07:13:35;;;;;;;21.10;8.50;;;;;;;11.40;100.00;102179.16;5082929;28;20052;-69
2022/09/20 07:16:06;;;;;;;20.27;8.20;;;;;;;11.49;100.00;102182.00;5084104;28;20463;-67
2022/09/20 07:18:32;;;;;;;21.48;8.23;;;;;;;11.50;100.00;102181.16;5081075;28;20035;-68
2022/09/20 07:20:59;;;;;;;20.25;7.65;;;;;;;11.57;100.00;102182.16;5088329;28;20031;-63
2022/09/20 07:23:28;;;;;;;22.48;8.05;;;;;;;11.65;100.00;102172.63;5084866;28;20025;-64
2022/09/20 07:25:59;;;;;;;19.92;7.40;;;;;;;11.70;100.00;102170.06;5082726;28;20483;-64
2022/09/20 07:28:29;;;;;;;19.85;7.40;;;;;;;11.74;100.00;102173.69;5088632;28;20031;-64
2022/09/20 07:30:54;;;;;;;20.67;7.43;;;;;;;11.90;100.00;102173.13;5084531;28;20024;-63
2022/09/20 07:33:20;;;;;;;19.70;7.18;;;;;;;12.10;100.00;102186.81;5085052;28;20383;-63
2022/09/20 07:35:48;;;;;;;19.55;6.75;;;;;;;12.20;100.00;102185.22;5078428;28;20025;-63
2022/09/20 07:38:15;;;;;;;20.25;6.90;;;;;;;12.27;100.00;102175.63;5079650;28;20475;-63
2022/09/20 07:40:41;;;;;;;20.30;7.00;;;;;;;12.49;100.00;102176.91;5084183;28;20036;-64
2022/09/20 07:43:07;;;;;;;20.73;6.80;;;;;;;12.51;100.00;102185.78;5084417;28;20073;-64
2022/09/20 07:45:33;;;;;;;20.45;6.57;;;;;;;12.55;100.00;102193.81;5082575;28;20357;-63
2022/09/20 07:48:04;;;;;;;18.83;6.32;;;;;;;12.67;100.00;102193.16;5083470;28;20032;-63
2022/09/20 07:50:29;;;;;;;18.20;6.55;;;;;;;12.79;100.00;102197.75;5087233;28;20040;-63
2022/09/20 07:52:56;;;;;;;19.20;6.68;;;;;;;12.84;100.00;102204.06;5084241;28;20024;-63
2022/09/20 07:55:21;;;;;;;17.95;6.00;;;;;;;12.95;100.00;102198.03;5082756;28;20025;-63
2022/09/20 07:57:46;;;;;;;20.30;5.93;;;;;;;12.98;100.00;102208.69;5084172;28;20037;-64
2022/09/20 08:00:12;;;;;;;19.33;5.90;;;;;;;12.96;100.00;102208.66;5089304;28;20225;-64
2022/09/20 08:02:37;;;;;;;18.92;5.82;;;;;;;12.93;100.00;102211.28;5083777;28;20046;-65
2022/09/20 08:05:03;;;;;;;17.77;6.03;;;;;;;12.80;100.00;102217.22;5087948;28;20020;-63
2022/09/20 08:07:29;;;;;;;19.30;6.05;;;;;;;12.73;100.00;102213.59;5087770;28;20024;-64
2022/09/20 08:09:54;;;;;;;18.63;6.35;;;;;;;12.75;100.00;102205.66;5087147;28;20031;-64
2022/09/20 08:12:19;;;;;;;18.35;5.75;;;;;;;12.90;100.00;102212.09;5085049;28;20021;-63
2022/09/20 08:14:45;;;;;;;18.48;5.60;;;;;;;13.15;100.00;102215.16;5085773;28;20357;-64
2022/09/20 08:17:10;;;;;;;19.15;5.80;;;;;;;13.52;100.00;102210.41;5086298;28;20039;-63
2022/09/20 08:19:38;;;;;;;18.90;5.50;;;;;;;13.97;100.00;102203.00;5083988;28;20032;-63
2022/09/20 08:22:04;;;;;;;19.13;5.63;;;;;;;14.15;100.00;102212.06;5087586;28;20059;-63
2022/09/20 08:24:31;;;;;;;17.55;5.20;;;;;;;14.32;100.00;102204.28;5083675;28;20095;-64
2022/09/20 08:26:56;;;;;;;17.17;4.40;;;;;;;14.30;100.00;102206.94;5086911;28;20471;-63
2022/09/20 08:29:21;;;;;;;15.48;4.55;;;;;;;14.10;100.00;102207.59;5084951;28;20017;-64
2022/09/20 08:31:47;;;;;;;17.08;4.85;;;;;;;13.94;100.00;102214.47;5085521;28;20378;-63
2022/09/20 08:34:14;;;;;;;17.02;5.38;;;;;;;13.69;100.00;102215.03;5085461;28;20456;-64
2022/09/20 08:36:44;;;;;;;18.23;4.50;;;;;;;13.48;100.00;102213.88;5084623;28;20090;-63
2022/09/20 08:39:09;;;;;;;18.05;4.80;;;;;;;13.38;100.00;102207.56;5083101;28;20028;-63
2022/09/20 08:41:47;;;;;;;17.10;4.65;;;;;;;13.70;100.00;102216.84;5086697;28;20031;-64
2022/09/20 08:44:31;;;;;;;20.15;5.13;;;;;;;14.39;100.00;102215.00;5086321;28;20039;-63
2022/09/20 08:47:08;;;;;;;17.30;4.35;;;;;;;15.20;100.00;102227.22;5087419;28;20039;-63
2022/09/20 08:49:34;;;;;;;16.25;4.13;;;;;;;15.19;100.00;102228.13;5091892;28;20020;-63
2022/09/20 08:52:01;;;;;;;15.57;4.63;;;;;;;15.15;100.00;102229.00;5088250;28;20032;-64
2022/09/20 08:54:30;;;;;;;18.35;4.10;;;;;;;15.29;100.00;102235.31;5087095;28;20052;-62
2022/09/20 08:56:55;;;;;;;15.52;4.00;;;;;;;15.62;100.00;102231.03;5085964;28;20043;-62
2022/09/20 08:59:22;;;;;;;16.90;4.15;;;;;;;16.11;100.00;102241.09;5085514;28;20033;-64
2022/09/20 09:01:50;;;;;;;14.30;3.33;;;;;;;16.45;100.00;102234.94;5087982;28;20017;-63
2022/09/20 09:04:16;;;;;;;15.85;3.50;;;;;;;16.47;100.00;102234.06;5085354;28;20024;-64
2022/09/20 09:06:43;;;;;;;13.98;3.35;;;;;;;17.06;100.00;102236.81;5085192;28;20081;-64
2022/09/20 09:09:22;;;;;;;13.43;2.80;;;;;;;17.60;100.00;102226.91;5086703;28;20082;-66
2022/09/20 09:11:48;;;;;;;11.38;2.78;;;;;;;18.29;100.00;102232.88;5090538;28;20023;-63
2022/09/20 09:14:53;;;;;;;15.60;3.10;;;;;;;18.90;100.00;102228.00;5089317;28;20020;-64
2022/09/20 09:17:24;;;;;;;18.95;3.60;;;;;;;19.40;100.00;102232.00;5087627;28;20035;-63
2022/09/20 09:19:55;;;;;;;14.77;3.10;;;;;;;18.46;100.00;102239.03;5088872;28;20048;-65
2022/09/20 09:22:35;;;;;;;10.73;2.40;;;;;;;18.64;100.00;102229.09;5082364;28;20021;-64
2022/09/20 09:25:15;;;;;;;9.68;2.10;;;;;;;18.56;100.00;102230.91;5084913;28;20107;-64
2022/09/20 09:27:56;;;;;;;12.75;2.20;;;;;;;18.52;100.00;102230.03;5087532;28;20183;-64
2022/09/20 09:30:25;;;;;;;13.00;2.10;;;;;;;18.56;100.00;102226.44;5088770;28;20032;-63
2022/09/20 09:32:52;;;;;;;10.75;2.30;;;;;;;18.65;100.00;102225.50;5083670;28;20029;-62
2022/09/20 09:35:30;;;;;;;14.68;2.20;;;;;;;18.46;100.00;102230.09;5080801;28;20048;-62
2022/09/20 09:38:00;;;;;;;13.20;2.25;;;;;;;18.19;100.00;102236.50;5084976;28;20105;-62
2022/09/20 09:40:30;;;;;;;9.65;2.00;;;;;;;17.85;88.41;102225.91;5086460;28;20031;-63
2022/09/20 09:43:01;;;;;;;13.60;2.30;;;;;;;17.31;96.62;102224.28;5081791;28;20076;-62
2022/09/20 09:45:37;;;;;;;11.73;2.35;;;;;;;17.18;95.26;102228.78;5087410;28;20028;-62
2022/09/20 09:48:19;;;;;;;12.48;2.30;;;;;;;17.22;98.14;102230.53;5085166;28;20052;-62
2022/09/20 09:50:44;;;;;;;16.17;2.20;;;;;;;17.00;95.53;102235.03;5082790;28;20020;-62
2022/09/20 09:53:14;;;;;;;11.48;2.40;;;;;;;16.72;98.57;102239.44;5086049;28;20378;-62
2022/09/20 09:56:04;;;;;;;10.05;2.20;;;;;;;16.42;98.73;102238.50;5085139;28;20028;-65
2022/09/20 09:59:06;;;;;;;12.13;2.15;;;;;;;16.12;100.00;102237.53;5084453;28;20040;-63
2022/09/20 10:01:32;;;;;;;11.25;2.38;;;;;;;15.84;100.00;102241.84;5084833;28;20455;-65
2022/09/20 10:04:24;;;;;;;13.68;2.42;;;;;;;15.70;100.00;102236.44;5085980;28;20032;-62
2022/09/20 10:06:59;;;;;;;13.60;2.40;;;;;;;15.29;100.00;102248.63;5082064;28;20025;-63
2022/09/20 10:09:55;;;;;;;15.32;2.50;;;;;;;15.11;100.00;102244.03;5085421;28;20017;-63
2022/09/20 10:12:47;;;;;;;14.88;2.70;;;;;;;14.97;100.00;102246.59;5082461;28;20028;-63
2022/09/20 10:15:34;;;;;;;13.73;2.58;;;;;;;14.94;100.00;102246.59;5083832;28;20040;-63
2022/09/20 10:18:25;;;;;;;13.43;2.53;;;;;;;14.84;100.00;102249.13;5083233;28;20032;-64
2022/09/20 10:21:08;;;;;;;13.45;2.60;;;;;;;14.68;100.00;102245.44;5083595;28;20055;-63
2022/09/20 10:24:09;;;;;;;11.30;2.50;;;;;;;14.51;100.00;102235.50;5080914;28;20039;-64
2022/09/20 10:26:42;;;;;;;10.45;2.28;;;;;;;14.43;100.00;102243.41;5033974;28;20140;-65
2022/09/20 10:29:10;;;;;;;13.00;2.30;;;;;;;14.43;100.00;102242.50;5030928;28;20057;-66
2022/09/20 10:32:00;;;;;;;14.20;2.33;;;;;;;14.60;100.00;102235.56;5027542;28;20033;-65
2022/09/20 10:34:53;;;;;;;10.60;2.45;;;;;;;14.87;100.00;102239.44;5030821;28;20548;-63
2022/09/20 10:37:40;;;;;;;11.85;2.35;;;;;;;15.10;100.00;102236.03;5030675;28;20072;-65
2022/09/20 10:40:23;;;;;;;13.85;2.38;;;;;;;15.34;100.00;102240.66;5030561;28;20488;-64
2022/09/20 10:46:08;;;;;;;13.43;2.63;;;;;;;15.94;100.00;102237.47;5029980;28;20044;-63
2022/09/20 10:48:47;;;;;;;13.40;2.30;;;;;;;16.15;100.00;102241.97;5030826;28;20041;-66
2022/09/20 10:51:27;;;;;;;14.68;2.75;;;;;;;16.62;100.00;102240.31;5030566;28;20132;-64
2022/09/20 10:54:16;;;;;;;13.95;2.80;;;;;;;16.87;100.00;102243.91;5027189;28;20485;-64
2022/09/20 10:56:46;;;;;;;13.35;2.88;;;;;;;17.09;100.00;102244.81;5030310;28;20044;-63
2022/09/20 10:59:32;;;;;;;12.40;2.50;;;;;;;17.21;100.00;102243.91;5026691;28;20025;-63
2022/09/20 11:02:36;;;;;;;16.73;2.38;;;;;;;17.47;100.00;102240.31;5049992;28;20111;-69
2022/09/20 11:05:37;;;;;;;10.73;2.28;;;;;;;17.61;100.00;102233.16;5012162;28;20037;-68
2022/09/20 11:08:21;;;;;;;13.07;2.42;;;;;;;18.42;100.00;102244.38;4927634;29;20047;-68
2022/09/20 11:11:31;;;;;;;12.90;2.20;;;;;;;21.74;97.21;102238.34;4922116;29;20494;-68
2022/09/20 11:14:15;;;;;;;11.85;2.25;;;;;;;24.35;65.74;102238.91;4874571;29;20048;-64
2022/09/20 11:16:59;;;;;;;9.82;2.03;;;;;;;26.22;51.65;102243.19;4873056;29;20045;-65
2022/09/20 11:19:41;;;;;;;11.45;2.13;;;;;;;28.07;43.27;102254.25;4873422;29;20041;-63
2022/09/20 11:22:14;;;;;;;15.90;2.10;;;;;;;28.65;36.46;102260.56;4873351;29;20049;-64
2022/09/20 11:24:46;;;;;;;11.52;1.98;;;;;;;26.65;37.45;102249.59;4873226;29;20041;-65
2022/09/20 11:27:23;;;;;;;12.38;2.10;;;;;;;24.07;41.60;102249.66;4873991;29;20139;-64
2022/09/20 11:30:05;;;;;;;11.18;2.20;;;;;;;21.99;47.71;102258.47;4873196;29;20488;-64
2022/09/20 11:32:40;;;;;;;9.82;2.13;;;;;;;20.16;51.12;102260.66;4872678;29;20049;-63
2022/09/20 11:35:13;;;;;;;12.80;2.10;;;;;;;18.96;57.01;102257.41;4872738;29;20085;-63
2022/09/20 11:37:43;;;;;;;8.75;2.17;;;;;;;18.23;57.74;102257.91;4873067;29;20165;-64
2022/09/20 11:40:21;;;;;;;10.38;2.00;;;;;;;17.81;61.50;102258.91;4876204;29;20520;-63
2022/09/20 11:42:48;;;;;;;11.38;2.20;;;;;;;17.31;64.64;102267.06;4919355;29;20110;-62
2022/09/20 11:45:14;;;;;;;10.05;2.00;;;;;;;17.23;65.12;102267.06;5006900;28;20479;-61
2022/09/20 11:48:09;;;;;;;10.48;2.20;;;;;;;17.17;65.19;102261.75;5036872;28;20040;-63
2022/09/20 11:50:53;;;;;;;9.35;2.10;;;;;;;17.12;64.96;102266.19;5051452;28;20119;-65
2022/09/20 11:54:05;;;;;;;10.70;2.20;;;;;;;17.27;64.59;102270.66;5079963;28;20103;-63
2022/09/20 11:56:34;;;;;;;11.90;2.23;;;;;;;17.20;64.70;102264.41;5079739;28;20043;-65
2022/09/20 11:59:02;;;;;;;12.98;2.50;;;;;;;17.23;65.25;102271.53;5078232;28;20271;-65
2022/09/20 12:01:31;;;;;;;11.15;2.20;;;;;;;17.31;66.62;102267.06;5079588;28;20020;-65
2022/09/20 12:04:25;;;;;;;10.85;2.30;;;;;;;17.11;64.45;102268.84;5082159;28;20078;-64
2022/09/20 12:07:03;;;;;;;9.68;2.00;;;;;;;17.10;67.79;102277.78;5082477;28;20024;-64
2022/09/20 12:09:41;;;;;;;11.55;2.33;;;;;;;17.06;67.48;102276.88;5080082;28;20067;-62